createdAt,value
2022-08-26T00:01:31.272Z,45.30
2022-08-26T00:03:58.956Z,45.02
2022-08-26T00:06:26.751Z,44.38
2022-08-26T00:08:54.735Z,44.85
2022-08-26T00:11:26.392Z,44.59
2022-08-26T00:13:54.804Z,44.74
2022-08-26T00:16:22.743Z,44.72
2022-08-26T00:18:51.229Z,44.80
2022-08-26T00:21:18.834Z,44.69
2022-08-26T00:23:46.494Z,44.53
2022-08-26T00:26:14.131Z,44.75
2022-08-26T00:28:42.153Z,44.95
2022-08-26T00:31:11.071Z,44.66
2022-08-26T00:33:39.266Z,45.34
2022-08-26T00:36:07.079Z,45.19
2022-08-26T00:38:34.890Z,45.55
2022-08-26T00:41:05.857Z,46.27
2022-08-26T00:43:47.251Z,46.22
2022-08-26T00:46:15.681Z,46.90
2022-08-26T00:48:44.035Z,46.88
2022-08-26T00:51:12.595Z,46.65
2022-08-26T00:53:40.299Z,47.02
2022-08-26T00:56:09.180Z,46.71
2022-08-26T00:58:43.289Z,46.79
2022-08-26T01:01:11.024Z,47.10
2022-08-26T01:03:38.719Z,46.66
2022-08-26T01:06:12.604Z,46.49
2022-08-26T01:08:40.784Z,46.51
2022-08-26T01:11:08.808Z,46.67
2022-08-26T01:13:36.528Z,46.53
2022-08-26T01:16:04.330Z,46.74
2022-08-26T01:18:32.146Z,46.72
2022-08-26T01:21:00.156Z,46.92
2022-08-26T01:23:28.048Z,47.03
2022-08-26T01:25:56.110Z,47.19
2022-08-26T01:28:23.755Z,47.47
2022-08-26T01:30:53.145Z,46.84
2022-08-26T01:33:20.743Z,47.20
2022-08-26T01:35:49.085Z,47.41
2022-08-26T01:38:16.712Z,47.04
2022-08-26T01:40:46.023Z,47.06
2022-08-26T01:43:14.865Z,47.01
2022-08-26T01:45:42.664Z,47.66
2022-08-26T01:48:11.705Z,47.69
2022-08-26T01:50:39.946Z,47.43
2022-08-26T01:53:07.832Z,48.18
2022-08-26T01:55:36.549Z,48.05
2022-08-26T01:58:04.782Z,48.19
2022-08-26T02:00:33.560Z,48.47
2022-08-26T02:03:15.031Z,48.54
2022-08-26T02:05:42.740Z,48.80
2022-08-26T02:08:11.467Z,48.94
2022-08-26T02:10:39.670Z,48.48
2022-08-26T02:13:07.956Z,48.86
2022-08-26T02:15:36.237Z,48.92
2022-08-26T02:18:04.136Z,49.12
2022-08-26T02:20:32.274Z,49.01
2022-08-26T02:22:59.932Z,49.12
2022-08-26T02:25:27.531Z,48.96
2022-08-26T02:27:56.831Z,48.82
2022-08-26T02:30:24.842Z,48.61
2022-08-26T02:32:54.127Z,48.55
2022-08-26T02:35:21.790Z,49.02
2022-08-26T02:37:49.667Z,49.42
2022-08-26T02:40:17.633Z,49.57
2022-08-26T02:42:45.304Z,49.58
2022-08-26T02:45:13.168Z,49.62
2022-08-26T02:47:44.962Z,50.05
2022-08-26T02:50:12.922Z,49.71
2022-08-26T02:52:40.851Z,49.37
2022-08-26T02:55:08.517Z,49.06
2022-08-26T02:57:36.284Z,49.26
2022-08-26T03:00:05.663Z,49.27
2022-08-26T03:02:33.300Z,49.33
2022-08-26T03:05:02.274Z,49.65
2022-08-26T03:07:30.214Z,49.27
2022-08-26T03:09:58.200Z,49.34
2022-08-26T03:12:25.906Z,49.90
2022-08-26T03:14:53.575Z,49.76
2022-08-26T03:17:21.257Z,49.86
2022-08-26T03:19:54.273Z,50.23
2022-08-26T03:22:25.143Z,50.26
2022-08-26T03:24:52.848Z,50.16
2022-08-26T03:27:20.827Z,50.09
2022-08-26T03:30:06.356Z,50.10
2022-08-26T03:32:34.621Z,50.31
2022-08-26T03:35:02.305Z,50.00
2022-08-26T03:37:30.244Z,50.41
2022-08-26T03:39:58.063Z,49.93
2022-08-26T03:42:25.886Z,50.19
2022-08-26T03:44:53.543Z,50.03
2022-08-26T03:47:22.020Z,50.23
2022-08-26T03:49:49.692Z,50.61
2022-08-26T03:52:19.594Z,50.29
2022-08-26T03:54:47.280Z,50.03
2022-08-26T03:57:15.156Z,50.09
2022-08-26T03:59:44.475Z,50.38
2022-08-26T04:02:12.078Z,50.13
2022-08-26T04:04:43.364Z,50.58
2022-08-26T04:07:11.116Z,50.69
2022-08-26T04:09:39.041Z,50.25
2022-08-26T04:12:07.438Z,50.84
2022-08-26T04:14:37.757Z,50.40
2022-08-26T04:17:06.848Z,50.70
2022-08-26T04:19:36.002Z,50.21
2022-08-26T04:22:03.744Z,50.19
2022-08-26T04:24:31.883Z,50.13
2022-08-26T04:26:59.566Z,50.29
2022-08-26T04:29:27.767Z,50.22
2022-08-26T04:31:56.142Z,50.03
2022-08-26T04:34:23.853Z,49.88
2022-08-26T04:36:51.512Z,49.90
2022-08-26T04:39:20.949Z,50.29
2022-08-26T04:41:48.548Z,50.24
2022-08-26T04:44:16.216Z,50.74
2022-08-26T04:46:45.390Z,50.44
2022-08-26T04:49:13.760Z,50.68
2022-08-26T04:51:41.430Z,50.46
2022-08-26T04:54:11.849Z,50.81
2022-08-26T04:56:39.696Z,50.51
2022-08-26T04:59:08.208Z,51.20
2022-08-26T05:01:44.639Z,50.62
2022-08-26T05:04:12.406Z,50.97
2022-08-26T05:06:44.100Z,51.13
2022-08-26T05:09:12.076Z,51.47
2022-08-26T05:11:39.673Z,51.67
2022-08-26T05:14:07.542Z,51.50
2022-08-26T05:16:35.223Z,51.41
2022-08-26T05:19:05.674Z,51.28
2022-08-26T05:21:36.156Z,51.41
2022-08-26T05:24:04.787Z,51.37
2022-08-26T05:26:32.529Z,51.61
2022-08-26T05:29:00.215Z,51.63
2022-08-26T05:31:27.941Z,51.76
2022-08-26T05:33:56.104Z,51.59
2022-08-26T05:36:24.479Z,51.62
2022-08-26T05:38:55.250Z,51.76
2022-08-26T05:41:25.022Z,51.83
2022-08-26T05:43:54.032Z,51.91
2022-08-26T05:46:21.833Z,52.12
2022-08-26T05:48:49.521Z,51.72
2022-08-26T05:51:19.516Z,51.97
2022-08-26T05:53:54.562Z,51.62
2022-08-26T05:56:24.945Z,51.99
2022-08-26T05:58:52.629Z,52.13
2022-08-26T06:01:21.414Z,52.21
2022-08-26T06:03:49.290Z,51.65
2022-08-26T06:06:16.976Z,51.87
2022-08-26T06:08:48.371Z,52.02
2022-08-26T06:11:18.359Z,52.10
2022-08-26T06:13:46.316Z,52.33
2022-08-26T06:16:14.052Z,52.31
2022-08-26T06:18:41.694Z,52.34
2022-08-26T06:21:09.362Z,51.88
2022-08-26T06:23:54.691Z,52.09
2022-08-26T06:26:22.371Z,52.40
2022-08-26T06:28:50.019Z,52.41
2022-08-26T06:31:18.299Z,52.34
2022-08-26T06:33:46.486Z,52.37
2022-08-26T06:36:15.744Z,53.02
2022-08-26T06:38:46.571Z,52.54
2022-08-26T06:41:14.327Z,52.85
2022-08-26T06:43:42.470Z,53.09
2022-08-26T06:46:10.311Z,53.07
2022-08-26T06:48:39.823Z,53.20
2022-08-26T06:51:07.556Z,52.76
2022-08-26T06:53:35.314Z,53.09
2022-08-26T06:56:03.136Z,53.13
2022-08-26T06:58:31.134Z,52.98
2022-08-26T07:01:03.718Z,52.96
2022-08-26T07:03:39.578Z,53.31
2022-08-26T07:06:07.598Z,53.11
2022-08-26T07:08:35.322Z,52.92
2022-08-26T07:11:03.325Z,53.63
2022-08-26T07:13:31.122Z,53.66
2022-08-26T07:16:03.116Z,53.13
2022-08-26T07:18:32.099Z,53.25
2022-08-26T07:21:02.014Z,53.56
2022-08-26T07:23:30.493Z,53.51
2022-08-26T07:25:58.390Z,53.32
2022-08-26T07:28:26.170Z,53.38
2022-08-26T07:30:53.857Z,53.11
2022-08-26T07:33:21.657Z,52.97
2022-08-26T07:35:49.588Z,53.10
2022-08-26T07:38:17.352Z,53.21
2022-08-26T07:40:45.232Z,52.87
2022-08-26T07:43:13.033Z,53.25
2022-08-26T07:45:40.727Z,53.37
2022-08-26T07:48:08.454Z,53.32
2022-08-26T07:50:50.305Z,53.14
2022-08-26T07:53:19.413Z,53.06
2022-08-26T07:55:47.122Z,53.15
2022-08-26T07:58:14.853Z,52.64
2022-08-26T08:00:43.692Z,52.96
2022-08-26T08:03:12.215Z,52.69
2022-08-26T08:05:41.870Z,52.29
2022-08-26T08:08:26.856Z,52.83
2022-08-26T08:10:55.669Z,52.70
2022-08-26T08:13:23.857Z,52.46
2022-08-26T08:15:51.553Z,52.38
2022-08-26T08:18:20.576Z,52.10
2022-08-26T08:20:54.679Z,52.21
2022-08-26T08:23:32.782Z,52.22
2022-08-26T08:26:01.500Z,51.77
2022-08-26T08:28:29.200Z,51.84
2022-08-26T08:30:58.034Z,51.66
2022-08-26T08:33:26.284Z,51.75
2022-08-26T08:35:54.837Z,50.98
2022-08-26T08:38:22.744Z,51.20
2022-08-26T08:40:51.991Z,51.15
2022-08-26T08:43:19.745Z,50.78
2022-08-26T08:45:47.672Z,50.88
2022-08-26T08:48:17.423Z,51.29
2022-08-26T08:50:45.911Z,50.91
2022-08-26T08:53:13.603Z,50.64
2022-08-26T08:55:42.042Z,51.05
2022-08-26T08:58:10.540Z,50.99
2022-08-26T09:00:41.504Z,50.57
2022-08-26T09:03:10.986Z,50.87
2022-08-26T09:05:45.438Z,51.04
2022-08-26T09:08:16.699Z,50.87
2022-08-26T09:10:47.874Z,51.12
2022-08-26T09:13:17.002Z,50.97
2022-08-26T09:15:52.731Z,50.79
2022-08-26T09:18:20.829Z,51.14
2022-08-26T09:20:48.542Z,50.98
2022-08-26T09:23:16.643Z,51.60
2022-08-26T09:25:46.158Z,50.74
2022-08-26T09:28:14.024Z,51.23
2022-08-26T09:30:43.382Z,50.76
2022-08-26T09:33:11.651Z,51.38
2022-08-26T09:35:39.613Z,50.85
2022-08-26T09:38:11.705Z,50.89
2022-08-26T09:40:40.192Z,50.69
2022-08-26T09:43:07.912Z,50.44
2022-08-26T09:45:35.933Z,50.81
2022-08-26T09:48:04.043Z,50.57
2022-08-26T09:50:32.499Z,50.54
2022-08-26T09:53:00.193Z,50.57
2022-08-26T09:55:28.286Z,50.86
2022-08-26T09:57:59.937Z,50.35
2022-08-26T10:00:31.375Z,50.28
2022-08-26T10:02:59.093Z,50.46
2022-08-26T10:05:26.769Z,50.52
2022-08-26T10:07:54.948Z,50.10
2022-08-26T10:10:22.912Z,49.35
2022-08-26T10:12:50.776Z,49.86
2022-08-26T10:15:19.588Z,49.80
2022-08-26T10:17:50.067Z,48.56
2022-08-26T10:20:23.641Z,48.44
2022-08-26T10:22:51.921Z,48.13
2022-08-26T10:25:19.652Z,48.45
2022-08-26T10:27:52.794Z,49.04
2022-08-26T10:30:21.544Z,49.19
2022-08-26T10:32:49.286Z,49.37
2022-08-26T10:35:17.022Z,49.06
2022-08-26T10:37:45.122Z,49.56
2022-08-26T10:40:12.936Z,49.30
2022-08-26T10:42:40.671Z,49.38
2022-08-26T10:45:11.797Z,49.54
2022-08-26T10:47:39.809Z,49.94
2022-08-26T10:50:07.791Z,49.96
2022-08-26T10:52:36.526Z,50.44
2022-08-26T10:55:04.780Z,50.46
2022-08-26T10:57:32.781Z,50.52
2022-08-26T11:00:00.392Z,50.49
2022-08-26T11:02:27.059Z,50.95
2022-08-26T11:04:55.813Z,50.92
2022-08-26T11:07:23.497Z,50.80
2022-08-26T11:09:53.278Z,50.58
2022-08-26T11:12:21.517Z,50.65
2022-08-26T11:14:58.482Z,51.12
2022-08-26T11:17:26.933Z,50.77
2022-08-26T11:20:01.998Z,50.76
2022-08-26T11:22:31.194Z,50.15
2022-08-26T11:24:59.126Z,49.92
2022-08-26T11:27:27.360Z,49.70
2022-08-26T11:29:56.275Z,49.61
2022-08-26T11:32:24.099Z,49.74
2022-08-26T11:34:54.125Z,49.99
2022-08-26T11:37:21.840Z,50.26
2022-08-26T11:39:54.750Z,50.17
2022-08-26T11:42:23.143Z,50.54
2022-08-26T11:44:50.967Z,50.21
2022-08-26T11:47:18.682Z,50.50
2022-08-26T11:49:47.081Z,50.71
2022-08-26T11:52:14.815Z,50.58
2022-08-26T11:54:42.487Z,50.80
2022-08-26T11:57:12.078Z,51.12
2022-08-26T11:59:40.153Z,51.40
2022-08-26T12:02:07.938Z,51.25
2022-08-26T12:04:39.112Z,51.69
2022-08-26T12:07:08.987Z,51.43
2022-08-26T12:09:36.928Z,51.60
2022-08-26T12:12:04.575Z,51.79
2022-08-26T12:14:32.204Z,51.58
2022-08-26T12:17:01.144Z,51.50
2022-08-26T12:19:28.849Z,51.41
2022-08-26T12:22:00.541Z,51.38
2022-08-26T12:24:28.298Z,51.59
2022-08-26T12:26:56.728Z,51.19
2022-08-26T12:29:26.861Z,50.75
2022-08-26T12:31:55.191Z,50.75
2022-08-26T12:34:23.023Z,51.23
2022-08-26T12:36:51.819Z,51.80
2022-08-26T12:39:19.562Z,51.04
2022-08-26T12:41:47.746Z,51.07
2022-08-26T12:44:15.381Z,51.22
2022-08-26T12:46:45.661Z,51.70
2022-08-26T12:49:16.860Z,52.12
2022-08-26T12:51:44.554Z,52.21
2022-08-26T12:54:12.269Z,52.64
2022-08-26T12:56:40.027Z,52.44
2022-08-26T12:59:07.666Z,52.35
2022-08-26T13:01:35.463Z,52.72
2022-08-26T13:04:03.251Z,51.97
2022-08-26T13:06:31.602Z,52.61
2022-08-26T13:08:59.286Z,52.36
2022-08-26T13:11:27.028Z,52.10
2022-08-26T13:13:54.966Z,52.50
2022-08-26T13:16:23.960Z,52.38
2022-08-26T13:18:51.795Z,52.48
2022-08-26T13:21:19.865Z,52.89
2022-08-26T13:23:47.580Z,53.22
2022-08-26T13:26:15.214Z,52.51
2022-08-26T13:28:43.606Z,52.71
2022-08-26T13:31:11.666Z,52.91
2022-08-26T13:33:39.930Z,52.69
2022-08-26T13:36:09.253Z,52.46
2022-08-26T13:38:36.931Z,52.80
2022-08-26T13:41:05.011Z,53.40
2022-08-26T13:43:32.707Z,53.30
2022-08-26T13:46:01.189Z,53.62
2022-08-26T13:48:28.965Z,52.92
2022-08-26T13:50:57.319Z,53.11
2022-08-26T13:53:25.177Z,52.99
2022-08-26T13:55:53.455Z,52.83
2022-08-26T13:58:21.076Z,52.48
2022-08-26T14:00:53.459Z,52.48
2022-08-26T14:03:21.225Z,52.02
2022-08-26T14:05:49.060Z,52.72
2022-08-26T14:08:17.066Z,52.51
2022-08-26T14:10:44.794Z,53.27
2022-08-26T14:13:12.472Z,53.36
2022-08-26T14:15:40.442Z,53.14
2022-08-26T14:18:08.757Z,53.88
2022-08-26T14:20:36.719Z,53.99
2022-08-26T14:23:13.779Z,53.85
2022-08-26T14:25:42.397Z,53.61
2022-08-26T14:28:10.095Z,53.55
2022-08-26T14:30:37.836Z,53.34
2022-08-26T14:33:05.649Z,53.72
2022-08-26T14:35:33.428Z,53.71
2022-08-26T14:38:01.217Z,53.67
2022-08-26T14:40:29.623Z,53.44
2022-08-26T14:42:58.670Z,53.75
2022-08-26T14:45:26.762Z,54.00
2022-08-26T14:47:56.593Z,53.25
2022-08-26T14:50:24.621Z,53.61
2022-08-26T14:53:09.861Z,53.89
2022-08-26T14:55:37.910Z,53.89
2022-08-26T14:58:05.925Z,53.48
2022-08-26T15:00:33.705Z,53.76
2022-08-26T15:03:01.559Z,54.23
2022-08-26T15:05:29.696Z,54.25
2022-08-26T15:07:57.409Z,54.14
2022-08-26T15:10:25.424Z,54.10
2022-08-26T15:12:53.180Z,54.29
2022-08-26T15:15:21.072Z,53.92
2022-08-26T15:17:49.456Z,54.18
2022-08-26T15:20:17.550Z,54.08
2022-08-26T15:22:45.362Z,54.37
2022-08-26T15:25:13.042Z,54.02
2022-08-26T15:27:40.734Z,54.21
2022-08-26T15:30:08.746Z,53.72
2022-08-26T15:32:36.439Z,54.51
2022-08-26T15:35:08.691Z,54.37
2022-08-26T15:37:37.098Z,54.51
2022-08-26T15:40:05.307Z,54.08
2022-08-26T15:42:33.367Z,54.11
2022-08-26T15:45:01.139Z,54.51
2022-08-26T15:47:28.924Z,54.76
2022-08-26T15:49:57.609Z,54.81
2022-08-26T15:52:26.168Z,55.04
2022-08-26T15:54:53.913Z,55.14
2022-08-26T15:57:21.584Z,55.33
2022-08-26T15:59:49.600Z,55.05
2022-08-26T16:02:18.070Z,55.10
2022-08-26T16:04:45.844Z,55.39
2022-08-26T16:07:13.565Z,56.04
2022-08-26T16:09:41.486Z,55.90
2022-08-26T16:12:09.211Z,55.42
2022-08-26T16:14:36.924Z,55.74
2022-08-26T16:17:04.723Z,56.01
2022-08-26T16:19:32.818Z,55.90
2022-08-26T16:22:00.649Z,55.77
2022-08-26T16:24:30.544Z,56.07
2022-08-26T16:26:58.445Z,56.26
2022-08-26T16:29:26.411Z,56.61
2022-08-26T16:31:54.918Z,56.83
2022-08-26T16:34:22.579Z,56.66
2022-08-26T16:36:50.368Z,57.05
2022-08-26T16:39:18.354Z,57.00
2022-08-26T16:41:46.104Z,57.23
2022-08-26T16:44:13.740Z,57.37
2022-08-26T16:46:41.854Z,57.49
2022-08-26T16:49:09.782Z,57.28
2022-08-26T16:51:38.338Z,57.60
2022-08-26T16:54:07.084Z,57.30
2022-08-26T16:56:35.224Z,57.35
2022-08-26T16:59:02.927Z,57.55
2022-08-26T17:01:30.650Z,57.74
2022-08-26T17:03:58.576Z,57.83
2022-08-26T17:06:26.252Z,57.93
2022-08-26T17:08:54.340Z,57.97
2022-08-26T17:11:22.029Z,57.78
2022-08-26T17:13:49.800Z,58.23
2022-08-26T17:16:17.745Z,58.06
2022-08-26T17:18:45.807Z,57.82
2022-08-26T17:21:13.546Z,57.91
2022-08-26T17:23:41.287Z,57.99
2022-08-26T17:26:09.227Z,58.50
2022-08-26T17:28:37.380Z,58.27
2022-08-26T17:31:05.063Z,58.62
2022-08-26T17:33:32.960Z,58.79
2022-08-26T17:36:01.124Z,58.51
2022-08-26T17:38:29.278Z,58.56
2022-08-26T17:40:57.622Z,59.01
2022-08-26T17:43:27.129Z,58.89
2022-08-26T17:45:55.121Z,59.01
2022-08-26T17:48:22.769Z,59.05
2022-08-26T17:50:50.843Z,58.98
2022-08-26T17:53:19.356Z,59.34
2022-08-26T17:55:47.126Z,59.30
2022-08-26T17:58:14.968Z,58.94
2022-08-26T18:00:43.121Z,59.35
2022-08-26T18:03:11.038Z,58.95
2022-08-26T18:05:38.879Z,59.09
2022-08-26T18:08:06.510Z,59.22
2022-08-26T18:10:34.627Z,59.16
2022-08-26T18:13:02.482Z,59.16
2022-08-26T18:15:30.236Z,59.13
2022-08-26T18:17:57.932Z,59.53
2022-08-26T18:20:26.869Z,59.44
2022-08-26T18:22:54.513Z,59.37
2022-08-26T18:25:22.236Z,59.54
2022-08-26T18:27:49.869Z,59.44
2022-08-26T18:30:18.492Z,59.78
2022-08-26T18:32:46.198Z,59.44
2022-08-26T18:35:14.025Z,59.62
2022-08-26T18:37:41.895Z,59.24
2022-08-26T18:40:10.081Z,59.57
2022-08-26T18:42:37.832Z,59.34
2022-08-26T18:45:05.602Z,59.92
2022-08-26T18:47:33.358Z,59.95
2022-08-26T18:50:02.430Z,59.77
2022-08-26T18:52:30.091Z,59.79
2022-08-26T18:54:57.857Z,60.01
2022-08-26T18:57:25.510Z,59.72
2022-08-26T18:59:53.570Z,59.89
2022-08-26T19:02:21.381Z,60.23
2022-08-26T19:04:49.243Z,59.94
2022-08-26T19:07:17.073Z,59.87
2022-08-26T19:09:45.273Z,60.24
2022-08-26T19:12:13.105Z,60.24
2022-08-26T19:14:41.367Z,60.23
2022-08-26T19:17:09.025Z,60.13
2022-08-26T19:19:37.057Z,59.97
2022-08-26T19:22:04.944Z,60.39
2022-08-26T19:24:35.254Z,60.30
2022-08-26T19:27:02.963Z,60.34
2022-08-26T19:29:31.036Z,60.41
2022-08-26T19:31:58.863Z,60.08
2022-08-26T19:34:26.699Z,60.07
2022-08-26T19:36:54.808Z,60.16
2022-08-26T19:39:22.923Z,60.11
2022-08-26T19:41:50.686Z,60.03
2022-08-26T19:44:39.123Z,60.20
2022-08-26T19:47:07.132Z,59.80
2022-08-26T19:49:35.007Z,60.02
2022-08-26T19:52:03.254Z,60.28
2022-08-26T19:54:31.030Z,60.14
2022-08-26T19:56:59.024Z,60.05
2022-08-26T19:59:26.787Z,60.24
2022-08-26T20:02:00.567Z,60.56
2022-08-26T20:04:29.461Z,60.44
2022-08-26T20:06:57.613Z,59.98
2022-08-26T20:09:26.795Z,60.43
2022-08-26T20:11:56.966Z,60.39
2022-08-26T20:14:24.740Z,60.22
2022-08-26T20:16:52.531Z,60.59
2022-08-26T20:19:39.053Z,60.34
2022-08-26T20:22:06.744Z,60.57
2022-08-26T20:24:34.484Z,60.53
2022-08-26T20:27:06.836Z,60.50
2022-08-26T20:29:35.765Z,61.06
2022-08-26T20:32:03.516Z,60.73
2022-08-26T20:34:31.325Z,61.03
2022-08-26T20:36:59.555Z,61.45
2022-08-26T20:39:29.574Z,60.88
2022-08-26T20:41:57.356Z,61.42
2022-08-26T20:44:25.086Z,61.41
2022-08-26T20:46:52.775Z,61.12
2022-08-26T20:49:20.822Z,61.32
2022-08-26T20:51:48.511Z,60.97
2022-08-26T20:54:16.173Z,60.85
2022-08-26T20:56:43.962Z,61.37
2022-08-26T20:59:12.426Z,60.98
2022-08-26T21:01:42.131Z,61.10
2022-08-26T21:04:10.370Z,61.13
2022-08-26T21:06:38.504Z,61.24
2022-08-26T21:09:06.653Z,61.70
2022-08-26T21:11:34.381Z,61.62
2022-08-26T21:14:06.831Z,61.27
2022-08-26T21:16:44.105Z,61.47
2022-08-26T21:19:12.410Z,61.75
2022-08-26T21:21:41.082Z,62.02
2022-08-26T21:24:08.785Z,61.95
2022-08-26T21:26:36.509Z,61.68
2022-08-26T21:29:04.644Z,61.89
2022-08-26T21:31:32.993Z,62.11
2022-08-26T21:34:00.732Z,61.97
2022-08-26T21:36:28.644Z,61.83
2022-08-26T21:38:56.782Z,61.78
2022-08-26T21:41:27.269Z,62.05
2022-08-26T21:43:55.107Z,61.79
2022-08-26T21:46:22.873Z,62.43
2022-08-26T21:48:51.173Z,62.11
2022-08-26T21:51:18.940Z,62.00
2022-08-26T21:53:46.633Z,62.22
2022-08-26T21:56:14.255Z,62.49
2022-08-26T21:58:42.479Z,62.20
2022-08-26T22:01:10.321Z,62.65
2022-08-26T22:03:46.699Z,62.23
2022-08-26T22:06:15.421Z,62.70
2022-08-26T22:08:43.455Z,62.33
2022-08-26T22:11:11.124Z,63.07
2022-08-26T22:13:38.888Z,62.56
2022-08-26T22:16:06.613Z,62.95
2022-08-26T22:18:35.842Z,62.24
2022-08-26T22:21:03.441Z,62.93
2022-08-26T22:23:31.109Z,62.77
2022-08-26T22:25:58.762Z,63.03
2022-08-26T22:28:26.892Z,62.75
2022-08-26T22:30:57.278Z,63.35
2022-08-26T22:33:25.879Z,62.87
2022-08-26T22:35:53.758Z,63.04
2022-08-26T22:38:21.394Z,63.57
2022-08-26T22:40:49.692Z,63.50
2022-08-26T22:43:18.098Z,63.02
2022-08-26T22:45:45.871Z,64.10
2022-08-26T22:48:15.910Z,63.54
2022-08-26T22:50:44.098Z,63.94
2022-08-26T22:53:11.848Z,63.79
2022-08-26T22:55:39.641Z,63.94
2022-08-26T22:58:07.262Z,63.84
2022-08-26T23:00:35.933Z,64.51
2022-08-26T23:03:04.360Z,64.11
2022-08-26T23:05:34.389Z,64.46
2022-08-26T23:08:02.076Z,64.51
2022-08-26T23:10:29.807Z,64.16
2022-08-26T23:12:57.593Z,64.30
2022-08-26T23:15:25.207Z,64.29
2022-08-26T23:17:58.852Z,64.22
2022-08-26T23:20:26.745Z,64.20
2022-08-26T23:22:54.753Z,64.77
2022-08-26T23:25:22.421Z,64.89
2022-08-26T23:27:52.150Z,64.75
2022-08-26T23:30:19.815Z,64.63
2022-08-26T23:32:47.537Z,64.84
2022-08-26T23:35:14.327Z,64.55
2022-08-26T23:37:42.127Z,64.73
2022-08-26T23:40:10.333Z,64.61
2022-08-26T23:42:38.110Z,64.77
2022-08-26T23:45:06.012Z,64.76
2022-08-26T23:47:33.760Z,65.03
2022-08-26T23:50:01.710Z,64.96
2022-08-26T23:52:46.759Z,65.13
2022-08-26T23:55:14.560Z,65.08
2022-08-26T23:57:42.542Z,65.23
